Time;durP1;ratioP1;P1;durP2;ratioP2;P2;SDS_P1;SDS_P2;PMS_P1;PMS_P2;Temp;Humidity;BMP_temperature;BMP_pressure;BME280_temperature;BME280_humidity;BME280_pressure;Samples;Min_cycle;Max_cycle;Signal;HPM_P1;HPM_P2
2021/10/10 00:02:48;;;;;;;19.55;9.27;;;;;;;5.70;70.72;101092.91;6322366;28;20119;-72
2021/10/10 00:05:49;;;;;;;17.67;8.48;;;;;;;5.70;71.01;101092.91;6322911;28;20048;-73
2021/10/10 00:08:49;;;;;;;19.40;8.75;;;;;;;5.72;70.68;101095.47;6323233;28;20050;-73
2021/10/10 00:11:52;;;;;;;19.73;8.50;;;;;;;5.77;70.03;101088.44;6324142;28;20127;-72
2021/10/10 00:14:53;;;;;;;14.52;7.95;;;;;;;5.71;70.88;101092.03;6323126;28;20486;-72
2021/10/10 00:17:53;;;;;;;17.48;8.50;;;;;;;5.73;70.00;101082.47;6322856;28;20055;-72
2021/10/10 00:20:54;;;;;;;22.75;9.20;;;;;;;5.77;70.27;101088.44;6306198;28;20048;-72
2021/10/10 00:23:55;;;;;;;23.75;9.00;;;;;;;5.78;68.80;101093.56;6323684;28;20067;-72
2021/10/10 00:26:56;;;;;;;16.08;8.68;;;;;;;5.77;69.14;101096.22;6322725;28;20396;-72
2021/10/10 00:29:56;;;;;;;17.17;7.70;;;;;;;5.72;68.68;101080.75;6323715;28;20040;-72
2021/10/10 00:32:57;;;;;;;24.20;8.77;;;;;;;5.79;68.81;101078.91;6322515;28;20473;-72
2021/10/10 00:35:58;;;;;;;22.35;9.15;;;;;;;5.81;68.94;101087.47;6322256;28;20127;-75
2021/10/10 00:38:58;;;;;;;16.52;8.43;;;;;;;5.83;71.07;101093.47;6322650;28;20046;-75
2021/10/10 00:41:59;;;;;;;24.63;9.23;;;;;;;5.81;68.45;101084.88;6322050;28;20125;-75
2021/10/10 00:45:00;;;;;;;20.25;9.20;;;;;;;5.82;67.85;101096.94;6323474;28;20039;-76
2021/10/10 00:48:01;;;;;;;17.50;8.13;;;;;;;5.80;71.39;101093.53;6323554;28;20044;-75
2021/10/10 00:51:02;;;;;;;20.33;8.90;;;;;;;5.80;68.32;101084.00;6321566;28;20052;-75
2021/10/10 00:54:05;;;;;;;22.90;9.93;;;;;;;5.78;69.35;101078.03;6288558;28;20488;-75
2021/10/10 00:57:06;;;;;;;22.83;8.70;;;;;;;5.78;68.17;101075.44;6322713;28;20101;-75
2021/10/10 01:00:08;;;;;;;17.67;8.57;;;;;;;5.74;67.88;101068.63;6321621;28;20052;-72
2021/10/10 01:03:11;;;;;;;17.25;8.38;;;;;;;5.80;67.70;101059.88;6322929;28;20040;-72
2021/10/10 01:06:11;;;;;;;16.67;8.18;;;;;;;5.81;67.82;101056.41;6322661;28;20047;-75
2021/10/10 01:09:13;;;;;;;19.95;9.05;;;;;;;5.73;67.49;101050.56;6322458;28;20051;-75
2021/10/10 01:12:15;;;;;;;18.23;7.88;;;;;;;5.73;67.96;101047.97;6322625;28;20036;-75
2021/10/10 01:15:15;;;;;;;18.27;8.70;;;;;;;5.69;68.58;101049.78;6304582;28;20048;-75
2021/10/10 01:18:24;;;;;;;17.77;8.27;;;;;;;5.67;68.34;101037.75;6321498;28;20036;-75
2021/10/10 01:21:25;;;;;;;20.92;7.68;;;;;;;5.69;68.96;101034.25;6322455;28;20449;-75
2021/10/10 01:24:26;;;;;;;23.00;8.43;;;;;;;5.71;68.68;101037.63;6322276;28;20052;-75
2021/10/10 01:27:27;;;;;;;19.42;8.98;;;;;;;5.70;69.30;101040.25;6321135;28;20082;-76
2021/10/10 01:30:28;;;;;;;21.98;8.68;;;;;;;5.73;68.33;101038.44;6322302;28;20048;-76
2021/10/10 01:33:29;;;;;;;18.55;8.73;;;;;;;5.77;69.36;101031.47;6304120;28;20056;-75
2021/10/10 01:36:30;;;;;;;20.17;9.13;;;;;;;5.74;68.33;101036.72;6320784;28;20047;-75
2021/10/10 01:39:31;;;;;;;19.58;8.85;;;;;;;5.74;67.48;101034.97;6322006;28;20032;-75
2021/10/10 01:42:32;;;;;;;19.63;8.35;;;;;;;5.78;68.24;101035.75;6320795;28;20097;-76
2021/10/10 01:45:33;;;;;;;19.65;9.32;;;;;;;5.80;67.31;101045.16;6322203;28;20048;-71
2021/10/10 01:48:34;;;;;;;18.25;8.65;;;;;;;5.85;66.62;101042.47;6322176;28;20043;-71
2021/10/10 01:51:36;;;;;;;17.92;8.93;;;;;;;5.86;66.88;101032.06;6306411;28;20086;-72
2021/10/10 01:54:37;;;;;;;18.52;8.40;;;;;;;5.89;66.21;101017.31;6327408;28;20047;-72
2021/10/10 01:57:38;;;;;;;17.63;8.52;;;;;;;5.92;66.32;101025.88;6326765;28;20122;-71
2021/10/10 02:00:38;;;;;;;17.75;8.70;;;;;;;5.93;66.34;101030.19;6327205;28;20044;-71
2021/10/10 02:03:39;;;;;;;16.77;8.77;;;;;;;5.98;66.10;101030.09;6308730;28;20131;-73
2021/10/10 02:06:40;;;;;;;17.77;8.38;;;;;;;6.00;66.02;101020.53;6326832;28;20048;-72
2021/10/10 02:09:42;;;;;;;19.38;9.02;;;;;;;6.08;65.10;101031.53;6325756;28;20040;-72
2021/10/10 02:12:43;;;;;;;22.25;8.05;;;;;;;6.07;65.46;101026.38;6292792;28;20044;-72
2021/10/10 02:15:44;;;;;;;18.85;8.73;;;;;;;6.07;65.26;101021.22;6325525;28;20036;-72
2021/10/10 02:18:45;;;;;;;27.20;9.02;;;;;;;6.06;65.27;101004.81;6326891;28;20059;-72
2021/10/10 02:21:45;;;;;;;22.88;8.93;;;;;;;6.11;65.31;101002.09;6326775;28;20257;-72
2021/10/10 02:24:46;;;;;;;23.92;9.65;;;;;;;6.07;65.51;101001.31;6326620;28;20052;-72
2021/10/10 02:27:48;;;;;;;20.83;8.65;;;;;;;6.10;64.81;101009.03;6308777;28;20048;-72
2021/10/10 02:30:49;;;;;;;17.25;8.90;;;;;;;6.07;65.62;101003.91;6325316;28;20040;-72
2021/10/10 02:33:50;;;;;;;19.80;8.23;;;;;;;6.09;65.47;101001.28;6325279;28;20077;-72
2021/10/10 02:36:50;;;;;;;23.05;8.30;;;;;;;6.07;66.70;100988.38;6326440;28;20086;-72
2021/10/10 02:39:52;;;;;;;22.17;9.55;;;;;;;6.01;65.32;100984.22;6326268;28;20047;-75
2021/10/10 02:42:52;;;;;;;24.95;8.02;;;;;;;6.00;65.60;100987.69;6324817;28;20051;-75
2021/10/10 02:45:53;;;;;;;24.17;9.60;;;;;;;6.02;65.55;100987.66;6324989;28;20382;-75
2021/10/10 02:48:54;;;;;;;16.70;7.70;;;;;;;6.03;66.22;100985.03;6325022;28;20476;-75
2021/10/10 02:51:55;;;;;;;16.63;8.80;;;;;;;5.99;67.57;100988.59;6324626;28;20181;-76
2021/10/10 02:54:56;;;;;;;23.77;9.85;;;;;;;6.07;66.51;100987.53;6324983;28;20048;-75
2021/10/10 02:57:57;;;;;;;24.80;8.90;;;;;;;6.12;65.29;100991.69;6324599;28;20044;-72
2021/10/10 03:00:58;;;;;;;20.80;8.65;;;;;;;6.10;65.85;100987.47;6325549;28;20122;-72
2021/10/10 03:04:00;;;;;;;23.00;9.55;;;;;;;6.13;65.82;100989.94;6325179;28;20048;-75
2021/10/10 03:07:00;;;;;;;17.45;8.73;;;;;;;6.11;66.89;100994.31;6324197;28;20040;-75
2021/10/10 03:10:02;;;;;;;18.75;8.77;;;;;;;6.10;66.42;100987.47;6325155;28;20082;-75
2021/10/10 03:13:02;;;;;;;18.92;8.90;;;;;;;6.13;65.91;100984.75;6324068;28;20044;-75
2021/10/10 03:16:04;;;;;;;20.23;9.25;;;;;;;6.14;67.20;100983.88;6324029;28;20396;-75
2021/10/10 03:19:04;;;;;;;20.13;8.77;;;;;;;6.19;66.42;100982.84;6325059;28;20094;-75
2021/10/10 03:22:05;;;;;;;20.67;9.13;;;;;;;6.22;64.86;100979.34;6324149;28;20056;-75
2021/10/10 03:25:06;;;;;;;19.25;9.05;;;;;;;6.19;65.80;100979.41;6290345;28;20231;-75
2021/10/10 03:28:07;;;;;;;24.73;9.45;;;;;;;6.15;63.59;100977.81;6307169;28;20142;-75
2021/10/10 03:31:08;;;;;;;21.50;9.25;;;;;;;6.22;64.93;100976.75;6323612;28;20043;-75
2021/10/10 03:34:09;;;;;;;25.55;9.85;;;;;;;6.24;63.30;100982.75;6323680;28;20412;-75
2021/10/10 03:37:09;;;;;;;24.45;9.80;;;;;;;6.22;65.36;100981.94;6306961;28;20036;-72
2021/10/10 03:40:11;;;;;;;19.70;9.43;;;;;;;6.20;64.12;100983.72;6306911;28;20114;-72
2021/10/10 03:43:12;;;;;;;25.10;9.18;;;;;;;6.20;63.08;100981.97;6323507;28;20468;-72
2021/10/10 03:46:13;;;;;;;29.33;9.63;;;;;;;6.23;64.40;100983.63;6323379;28;20052;-73
2021/10/10 03:49:14;;;;;;;23.33;9.38;;;;;;;6.17;64.94;100976.84;6290099;28;20075;-72
2021/10/10 03:52:15;;;;;;;18.75;8.82;;;;;;;6.18;64.09;100975.13;6306139;28;20381;-75
2021/10/10 03:58:29;;;;;;;19.45;8.60;;;;;;;6.20;66.36;100983.72;6324101;28;20113;-75
2021/10/10 04:01:30;;;;;;;20.73;9.20;;;;;;;6.16;63.64;100970.00;6324178;28;20040;-75
2021/10/10 04:04:34;;;;;;;20.90;8.80;;;;;;;6.15;64.57;100973.47;6323769;28;20039;-75
2021/10/10 04:07:35;;;;;;;17.17;8.77;;;;;;;6.18;63.43;100968.22;6324038;28;20036;-72
2021/10/10 04:10:36;;;;;;;16.45;8.85;;;;;;;6.19;64.02;100964.72;6323849;28;20532;-74
2021/10/10 04:13:38;;;;;;;22.55;8.30;;;;;;;6.14;63.54;100965.75;6323259;28;20048;-75
2021/10/10 04:16:38;;;;;;;23.33;9.23;;;;;;;6.14;63.67;100971.78;6324260;28;20068;-75
2021/10/10 04:19:39;;;;;;;15.43;8.05;;;;;;;6.08;64.01;100963.34;6322907;28;20349;-75
2021/10/10 04:22:40;;;;;;;19.77;8.82;;;;;;;6.02;63.52;100970.38;6322657;28;20093;-75
2021/10/10 04:25:41;;;;;;;21.17;8.82;;;;;;;6.05;64.87;100967.72;6305883;28;20068;-75
2021/10/10 04:28:42;;;;;;;21.92;8.75;;;;;;;6.10;64.94;100969.31;6322750;28;20039;-75
2021/10/10 04:31:43;;;;;;;18.10;8.88;;;;;;;6.14;64.21;100968.34;6323773;28;20090;-75
2021/10/10 04:34:43;;;;;;;18.98;8.80;;;;;;;6.13;64.27;100966.63;6323788;28;20048;-75
2021/10/10 04:37:45;;;;;;;19.63;8.63;;;;;;;6.16;63.47;100971.75;6305384;28;20185;-71
2021/10/10 04:40:45;;;;;;;21.65;8.38;;;;;;;6.10;63.62;100964.97;6322419;28;20044;-71
2021/10/10 04:43:46;;;;;;;16.05;7.82;;;;;;;6.10;64.00;100966.72;6323260;28;20040;-72
2021/10/10 04:46:47;;;;;;;22.75;8.70;;;;;;;6.13;63.88;100972.66;6322086;28;20044;-71
2021/10/10 04:49:48;;;;;;;15.75;8.55;;;;;;;6.14;63.65;100969.19;6323193;28;20503;-75
2021/10/10 04:52:48;;;;;;;30.58;9.57;;;;;;;6.15;63.72;100972.63;6305187;28;20056;-75
2021/10/10 04:55:49;;;;;;;24.05;9.50;;;;;;;6.17;63.61;100970.84;6323279;28;20096;-75
2021/10/10 04:58:50;;;;;;;20.25;8.70;;;;;;;6.13;65.09;100970.06;6323052;28;20039;-75
2021/10/10 05:01:51;;;;;;;21.55;8.55;;;;;;;6.12;63.86;100972.72;6323190;28;20040;-72
2021/10/10 05:04:52;;;;;;;27.40;9.20;;;;;;;6.07;63.51;100971.97;6320731;28;20067;-71
2021/10/10 05:07:52;;;;;;;31.42;9.05;;;;;;;6.08;64.04;100977.13;6321276;28;20484;-71
2021/10/10 05:10:53;;;;;;;22.08;7.88;;;;;;;6.00;64.08;100971.31;6304069;28;20047;-72
2021/10/10 05:13:54;;;;;;;17.15;8.02;;;;;;;5.99;64.18;100964.41;6322168;28;20101;-72
2021/10/10 05:16:57;;;;;;;20.90;7.95;;;;;;;6.00;63.98;100963.53;6330206;28;20040;-72
2021/10/10 05:19:58;;;;;;;22.30;9.07;;;;;;;5.96;64.17;100964.50;6347475;28;20122;-75
2021/10/10 05:22:58;;;;;;;16.80;8.88;;;;;;;5.93;64.46;100968.00;6329145;28;20152;-75
2021/10/10 05:26:00;;;;;;;21.98;9.18;;;;;;;5.98;64.65;100973.09;6311995;28;20112;-75
2021/10/10 05:29:01;;;;;;;20.55;8.57;;;;;;;5.92;64.00;100975.81;6325372;28;20082;-75
2021/10/10 05:32:02;;;;;;;22.83;9.10;;;;;;;5.93;64.06;100980.97;6341025;28;20381;-75
2021/10/10 05:35:03;;;;;;;20.17;9.10;;;;;;;5.95;65.06;100983.53;6321069;28;20048;-75
2021/10/10 05:38:04;;;;;;;24.50;8.50;;;;;;;5.97;63.61;100985.19;6322640;28;20044;-75
2021/10/10 05:41:05;;;;;;;21.45;9.00;;;;;;;5.93;63.46;100985.28;6304318;28;20055;-71
2021/10/10 05:44:06;;;;;;;25.15;9.23;;;;;;;5.91;64.12;100985.34;6322267;28;20047;-71
2021/10/10 05:47:07;;;;;;;16.90;7.80;;;;;;;5.86;63.55;100988.03;6321157;28;20498;-72
2021/10/10 05:50:08;;;;;;;20.50;8.70;;;;;;;5.96;63.34;100987.81;6322062;28;20056;-71
2021/10/10 05:53:09;;;;;;;22.92;7.75;;;;;;;6.01;63.21;100989.41;6335272;28;20051;-71
2021/10/10 05:56:10;;;;;;;19.35;7.97;;;;;;;6.17;63.41;100989.81;6347815;28;20094;-72
2021/10/10 05:59:14;;;;;;;17.20;7.72;;;;;;;6.23;62.64;100991.41;6344431;28;20036;-72
2021/10/10 06:02:15;;;;;;;16.75;6.25;;;;;;;6.31;61.88;100994.63;6324951;28;20377;-72
2021/10/10 06:05:16;;;;;;;24.67;8.25;;;;;;;6.32;61.40;100988.56;6321223;28;20044;-72
2021/10/10 06:08:18;;;;;;;14.55;6.90;;;;;;;6.27;61.14;100985.22;6321513;28;20174;-72
2021/10/10 06:11:19;;;;;;;25.75;9.07;;;;;;;6.39;62.58;100990.06;6320222;28;20100;-71
2021/10/10 06:14:20;;;;;;;24.25;7.68;;;;;;;6.48;61.08;100988.94;6320210;28;20127;-72
2021/10/10 06:17:21;;;;;;;12.32;6.72;;;;;;;6.57;60.06;100991.28;6303397;28;20517;-72
2021/10/10 06:20:22;;;;;;;18.00;8.10;;;;;;;6.64;62.37;100995.38;6321714;28;20466;-72
2021/10/10 06:23:24;;;;;;;26.42;8.40;;;;;;;6.74;61.90;100995.97;6320004;28;20610;-72
2021/10/10 06:26:25;;;;;;;18.90;8.13;;;;;;;6.77;60.77;100990.66;6320047;28;20040;-72
2021/10/10 06:29:25;;;;;;;26.83;7.90;;;;;;;6.83;60.71;100979.25;6328999;28;20046;-72
2021/10/10 06:32:26;;;;;;;13.40;6.22;;;;;;;6.83;58.68;100984.44;6325862;28;20039;-72
2021/10/10 06:35:27;;;;;;;17.65;7.65;;;;;;;7.02;60.54;100979.53;6320825;28;20359;-72
2021/10/10 06:38:28;;;;;;;19.63;7.47;;;;;;;7.12;60.04;100982.69;6342991;28;20072;-72
2021/10/10 06:41:29;;;;;;;26.88;9.50;;;;;;;7.27;60.87;100982.22;6324714;28;20047;-72
2021/10/10 06:44:30;;;;;;;25.90;9.60;;;;;;;7.35;59.45;100990.59;6324361;28;20064;-71
2021/10/10 06:47:30;;;;;;;21.85;7.85;;;;;;;7.46;60.48;100987.66;6324627;28;20119;-72
2021/10/10 06:50:31;;;;;;;18.10;6.88;;;;;;;7.57;59.97;100985.53;6274334;28;20094;-75
2021/10/10 06:53:32;;;;;;;18.13;7.72;;;;;;;7.75;58.36;100972.84;6325360;28;20051;-72
2021/10/10 06:56:33;;;;;;;20.02;7.35;;;;;;;7.82;57.20;100966.50;6324295;28;20043;-72
2021/10/10 06:59:33;;;;;;;16.67;7.18;;;;;;;7.86;58.32;100968.09;6325188;28;20483;-72
2021/10/10 07:02:34;;;;;;;20.27;7.97;;;;;;;7.99;55.73;100966.78;6341469;28;20040;-76
2021/10/10 07:05:35;;;;;;;24.25;7.20;;;;;;;8.09;56.86;100967.28;6339262;28;20048;-75
2021/10/10 07:08:36;;;;;;;25.38;11.00;;;;;;;8.06;55.55;100967.41;6325263;28;20064;-75
2021/10/10 07:11:36;;;;;;;23.85;8.50;;;;;;;8.18;56.15;100966.94;6337189;28;20047;-75
2021/10/10 07:14:37;;;;;;;26.73;9.93;;;;;;;8.23;54.56;100961.56;6349847;28;20511;-75
2021/10/10 07:17:38;;;;;;;22.05;9.68;;;;;;;8.41;54.81;100950.53;6349817;28;20548;-75
2021/10/10 07:24:06;;;;;;;27.10;13.25;;;;;;;8.88;54.42;100957.41;6325401;28;20036;-75
2021/10/10 07:27:06;;;;;;;15.25;8.07;;;;;;;9.18;53.57;100954.47;6325270;28;20385;-75
2021/10/10 07:30:09;;;;;;;22.42;7.55;;;;;;;9.32;53.48;100951.31;6324136;28;20044;-76
2021/10/10 07:33:10;;;;;;;16.80;7.05;;;;;;;9.36;51.62;100947.66;6325191;28;20040;-75
2021/10/10 07:36:11;;;;;;;23.52;7.78;;;;;;;9.59;50.52;100950.13;6324280;28;20089;-72
2021/10/10 07:39:12;;;;;;;22.37;8.10;;;;;;;9.84;49.98;100941.25;6328751;28;20067;-73
2021/10/10 07:42:14;;;;;;;56.78;19.85;;;;;;;10.25;49.87;100951.59;6314796;28;20040;-75
2021/10/10 07:45:18;;;;;;;37.75;13.50;;;;;;;10.42;49.94;100945.69;6324201;28;20097;-75
2021/10/10 07:48:19;;;;;;;24.70;9.75;;;;;;;10.46;48.38;100945.47;6323105;28;20064;-76
2021/10/10 07:51:25;;;;;;;20.55;7.28;;;;;;;10.60;46.88;100957.84;6323831;28;20054;-72
2021/10/10 07:54:25;;;;;;;16.25;6.10;;;;;;;10.91;47.79;100945.94;6337410;28;20044;-72
2021/10/10 07:57:28;;;;;;;21.77;6.45;;;;;;;11.08;48.08;100948.59;6348095;28;20050;-73
2021/10/10 08:00:30;;;;;;;16.40;5.88;;;;;;;11.26;45.58;100946.88;6348004;28;20048;-73
2021/10/10 08:03:31;;;;;;;15.70;7.47;;;;;;;11.35;46.07;100947.31;6341491;28;20036;-72
2021/10/10 08:06:31;;;;;;;13.93;6.13;;;;;;;11.27;44.26;100939.84;6346944;28;20040;-72
2021/10/10 08:09:32;;;;;;;16.38;6.28;;;;;;;11.49;46.16;100942.25;6342017;28;20471;-72
2021/10/10 08:12:33;;;;;;;15.43;5.43;;;;;;;11.44;44.28;100944.22;6322963;28;20074;-72
2021/10/10 08:15:34;;;;;;;20.25;6.18;;;;;;;11.73;44.40;100939.28;6306135;28;20078;-72
2021/10/10 08:18:35;;;;;;;14.98;5.95;;;;;;;11.95;45.15;100945.13;6329703;28;20410;-71
2021/10/10 08:21:36;;;;;;;11.98;5.53;;;;;;;12.09;42.06;100944.41;6336500;28;20473;-72
2021/10/10 08:24:37;;;;;;;15.43;5.93;;;;;;;12.22;43.31;100939.34;6339240;28;20043;-72
2021/10/10 08:27:40;;;;;;;14.45;5.82;;;;;;;12.55;42.24;100939.28;6334265;28;20396;-73
2021/10/10 08:30:40;;;;;;;24.67;6.10;;;;;;;12.79;43.45;100950.19;6305346;28;20047;-72
2021/10/10 08:33:41;;;;;;;14.13;6.22;;;;;;;12.85;42.20;100954.22;6323093;28;20488;-72
2021/10/10 08:36:42;;;;;;;17.17;5.85;;;;;;;12.80;42.50;100953.63;6344879;28;20093;-73
2021/10/10 08:39:43;;;;;;;16.75;5.45;;;;;;;12.74;41.95;100949.56;6346940;28;20046;-72
2021/10/10 08:42:52;;;;;;;19.40;6.57;;;;;;;12.87;40.83;100955.00;6347135;28;20442;-72
2021/10/10 08:45:53;;;;;;;22.38;6.47;;;;;;;13.14;40.95;100947.34;6347946;28;20078;-72
2021/10/10 08:48:54;;;;;;;19.88;6.45;;;;;;;13.37;43.32;100948.66;6328084;28;20040;-71
2021/10/10 08:51:54;;;;;;;13.18;5.82;;;;;;;13.38;40.81;100952.94;6322461;28;20052;-76
2021/10/10 08:54:55;;;;;;;17.58;6.07;;;;;;;13.46;40.81;100949.88;6321484;28;20048;-76
2021/10/10 08:57:56;;;;;;;21.25;6.25;;;;;;;13.18;42.42;100943.59;6322576;28;20036;-76
2021/10/10 09:01:17;;;;;;;32.90;8.50;;;;;;;13.70;40.75;100948.41;6304430;28;20063;-75
2021/10/10 09:04:18;;;;;;;11.13;5.40;;;;;;;13.73;41.30;100936.06;6321336;28;20040;-76
2021/10/10 09:07:19;;;;;;;19.40;6.07;;;;;;;13.43;40.13;100935.19;6304528;28;20054;-76
2021/10/10 09:10:28;;;;;;;13.18;5.63;;;;;;;13.86;41.13;100943.09;6322485;28;20040;-76
2021/10/10 09:13:35;;;;;;;12.77;6.07;;;;;;;13.51;39.62;100939.97;6322300;28;20067;-76
2021/10/10 09:16:36;;;;;;;16.40;4.80;;;;;;;13.83;39.21;100935.41;6322310;28;20082;-76
2021/10/10 09:19:36;;;;;;;12.75;5.65;;;;;;;13.91;39.37;100934.94;6346316;28;20123;-76
2021/10/10 09:22:38;;;;;;;14.90;6.22;;;;;;;14.19;40.21;100938.50;6347420;28;20047;-77
2021/10/10 09:25:56;;;;;;;22.27;8.30;;;;;;;14.39;37.68;100934.63;6347105;28;20061;-77
2021/10/10 09:28:57;;;;;;;15.82;5.68;;;;;;;14.64;39.54;100940.06;6347325;28;20115;-78
2021/10/10 09:32:09;;;;;;;12.18;4.63;;;;;;;14.70;36.86;100936.16;6346011;28;20040;-77
2021/10/10 09:35:29;;;;;;;10.18;4.90;;;;;;;14.85;38.27;100935.19;6328948;28;20136;-76
2021/10/10 09:38:40;;;;;;;15.77;5.25;;;;;;;15.05;37.57;100935.66;6329612;28;20054;-77
2021/10/10 09:41:54;;;;;;;15.00;5.57;;;;;;;15.18;37.08;100928.66;6330093;28;20494;-76
2021/10/10 09:44:55;;;;;;;12.00;5.30;;;;;;;14.85;35.64;100929.09;6346965;28;20043;-77
2021/10/10 09:48:02;;;;;;;11.68;5.00;;;;;;;14.74;38.00;100921.91;6345726;28;20039;-75
2021/10/10 09:51:03;;;;;;;13.38;5.38;;;;;;;14.95;37.18;100922.31;6346735;28;20052;-77
2021/10/10 09:54:06;;;;;;;15.05;5.28;;;;;;;15.18;37.48;100914.69;6346854;28;20480;-77
2021/10/10 09:57:08;;;;;;;12.13;4.75;;;;;;;15.46;36.53;100916.28;6345634;28;20066;-75
2021/10/10 10:00:20;;;;;;;12.63;4.90;;;;;;;15.47;34.63;100913.56;6345806;28;20047;-75
2021/10/10 10:03:21;;;;;;;;;;;;;;;15.58;35.82;100901.47;6347192;28;20118;-74
2021/10/10 10:06:22;;;;;;;14.07;4.70;;;;;;;15.48;36.51;100895.97;6312085;28;19920;-74
2021/10/10 10:09:24;;;;;;;14.30;5.07;;;;;;;15.68;34.76;100900.72;6346792;28;20048;-77
2021/10/10 10:12:25;;;;;;;11.77;4.63;;;;;;;15.78;37.39;100900.13;6347627;28;20593;-74
2021/10/10 10:15:31;;;;;;;16.05;5.15;;;;;;;15.91;35.03;100903.56;6350605;28;20043;-70
2021/10/10 10:18:37;;;;;;;8.30;3.88;;;;;;;15.88;33.23;100895.91;6351699;28;20050;-71
2021/10/10 10:21:38;;;;;;;12.18;4.63;;;;;;;15.52;33.55;100900.97;6351557;28;20040;-73
2021/10/10 10:24:42;;;;;;;16.58;5.38;;;;;;;15.81;34.73;100900.75;6333349;28;20039;-74
2021/10/10 10:27:43;;;;;;;12.95;4.57;;;;;;;15.78;33.91;100906.22;6351352;28;20039;-74
2021/10/10 10:30:46;;;;;;;15.63;4.88;;;;;;;15.86;34.14;100889.91;6329662;28;20064;-74
2021/10/10 10:33:47;;;;;;;8.93;4.40;;;;;;;16.29;36.16;100886.88;6324832;28;20430;-75
2021/10/10 10:37:06;;;;;;;10.15;4.88;;;;;;;16.45;34.02;100884.81;6324688;28;20071;-72
2021/10/10 10:40:16;;;;;;;13.93;4.85;;;;;;;16.63;33.82;100906.31;6325841;28;20397;-76
2021/10/10 10:43:34;;;;;;;18.38;5.20;;;;;;;16.64;33.52;100904.56;6322280;28;20451;-75
2021/10/10 10:47:01;;;;;;;12.98;4.30;;;;;;;16.64;34.60;100892.22;6305582;28;20047;-75
2021/10/10 10:50:04;;;;;;;15.57;6.43;;;;;;;16.85;34.48;100902.16;6311262;28;20039;-75
2021/10/10 10:53:08;;;;;;;10.95;4.25;;;;;;;16.95;31.68;100889.16;6311587;28;20123;-75
2021/10/10 10:56:24;;;;;;;12.23;4.05;;;;;;;17.00;31.49;100889.63;6313783;28;20032;-76
2021/10/10 11:00:03;;;;;;;14.60;4.85;;;;;;;16.48;33.35;100881.94;6312598;28;20036;-75
2021/10/10 11:03:23;;;;;;;10.23;4.18;;;;;;;16.58;32.77;100884.75;6313468;28;20116;-76
2021/10/10 11:06:23;;;;;;;9.30;3.92;;;;;;;16.88;33.08;100880.84;6313302;28;20040;-75
2021/10/10 11:09:26;;;;;;;14.38;4.00;;;;;;;17.09;33.59;100873.09;6312440;28;20058;-75
2021/10/10 11:12:29;;;;;;;16.25;4.57;;;;;;;17.17;32.53;100875.19;6310411;28;20097;-76
2021/10/10 11:15:57;;;;;;;9.50;4.20;;;;;;;17.29;32.67;100867.16;6312382;28;20042;-76
2021/10/10 11:19:02;;;;;;;16.67;4.45;;;;;;;17.26;32.29;100870.06;6314201;28;20094;-76
2021/10/10 11:22:03;;;;;;;11.13;4.30;;;;;;;16.95;33.38;100860.16;6311921;28;20089;-75
2021/10/10 11:25:04;;;;;;;12.63;3.72;;;;;;;17.00;30.94;100858.84;6311907;28;20471;-76
2021/10/10 11:28:05;;;;;;;19.83;4.43;;;;;;;16.66;32.11;100853.41;6311787;28;20119;-76
2021/10/10 11:31:15;;;;;;;14.18;4.60;;;;;;;16.48;31.95;100850.34;6313013;28;20036;-76
2021/10/10 11:34:19;;;;;;;12.45;3.95;;;;;;;16.79;32.46;100852.50;6312064;28;20044;-76
2021/10/10 11:37:20;;;;;;;11.63;4.30;;;;;;;17.08;33.98;100847.72;6312235;28;20404;-76
2021/10/10 11:40:21;;;;;;;12.20;4.25;;;;;;;17.28;32.25;100846.19;6312921;28;20053;-76
2021/10/10 11:43:23;;;;;;;8.32;4.07;;;;;;;17.20;31.76;100832.75;6311955;28;20064;-77
2021/10/10 11:46:24;;;;;;;8.93;3.90;;;;;;;17.07;32.51;100831.06;6314362;28;20468;-76
2021/10/10 11:49:25;;;;;;;11.25;4.55;;;;;;;17.00;31.63;100832.47;6312851;28;20403;-77
2021/10/10 11:52:34;;;;;;;11.57;4.10;;;;;;;16.93;33.08;100833.91;6310850;28;20048;-77
2021/10/10 11:55:37;;;;;;;13.52;3.88;;;;;;;17.20;31.59;100825.69;6310214;28;20277;-77
2021/10/10 11:58:38;;;;;;;9.90;4.10;;;;;;;17.37;33.51;100826.19;6311286;28;20052;-77
2021/10/10 12:01:39;;;;;;;10.38;4.28;;;;;;;16.94;31.59;100829.47;6303976;28;20044;-77
2021/10/10 12:04:39;;;;;;;14.68;4.97;;;;;;;16.89;33.05;100822.75;6305802;28;20153;-77
2021/10/10 12:07:42;;;;;;;12.23;4.40;;;;;;;16.98;32.15;100815.94;6323618;28;20047;-77
2021/10/10 12:10:45;;;;;;;17.13;3.60;;;;;;;16.77;31.82;100828.91;6322522;28;20059;-73
2021/10/10 12:13:56;;;;;;;18.48;3.72;;;;;;;16.85;34.13;100825.72;6322379;28;20512;-73
2021/10/10 12:16:56;;;;;;;13.68;3.40;;;;;;;16.91;31.68;100817.38;6322645;28;20036;-73
2021/10/10 12:19:59;;;;;;;15.48;3.67;;;;;;;16.88;32.08;100807.03;6322280;28;20044;-73
2021/10/10 12:23:04;;;;;;;12.73;3.70;;;;;;;16.91;33.93;100820.00;6305612;28;20113;-73
2021/10/10 12:26:05;;;;;;;11.57;3.67;;;;;;;16.49;31.64;100801.97;6323217;28;20048;-73
2021/10/10 12:29:20;;;;;;;7.10;3.30;;;;;;;16.52;35.56;100809.66;6323038;28;20044;-73
2021/10/10 12:32:28;;;;;;;7.47;2.95;;;;;;;16.35;32.08;100811.84;6323138;28;20093;-73
2021/10/10 12:35:29;;;;;;;9.32;3.85;;;;;;;16.36;33.14;100797.72;6322208;28;20036;-73
2021/10/10 12:38:41;;;;;;;7.75;3.88;;;;;;;16.27;33.16;100802.72;6321794;28;20044;-77
2021/10/10 12:41:42;;;;;;;13.50;3.97;;;;;;;16.24;33.01;100802.91;6322836;28;20047;-77
2021/10/10 12:45:17;;;;;;;6.68;3.20;;;;;;;16.35;34.75;100803.94;6321704;28;20060;-73
2021/10/10 12:48:20;;;;;;;9.18;3.35;;;;;;;16.45;33.14;100790.00;6322889;28;20047;-77
2021/10/10 12:51:21;;;;;;;6.65;3.05;;;;;;;16.43;33.58;100791.91;6322556;28;20133;-77
2021/10/10 12:54:24;;;;;;;11.65;3.22;;;;;;;16.50;33.79;100787.84;6322622;28;20441;-77
2021/10/10 12:57:25;;;;;;;9.35;3.72;;;;;;;16.50;32.40;100792.28;6304739;28;20484;-73
2021/10/10 13:00:26;;;;;;;9.07;2.88;;;;;;;16.55;35.66;100791.94;6322425;28;20050;-73
2021/10/10 13:03:27;;;;;;;8.52;3.20;;;;;;;16.66;35.14;100797.25;6322547;28;20123;-73
2021/10/10 13:06:27;;;;;;;6.00;2.78;;;;;;;16.60;33.55;100795.06;6281916;28;20051;-73
2021/10/10 13:09:28;;;;;;;9.90;3.08;;;;;;;16.73;34.45;100796.66;6295891;28;20097;-73
2021/10/10 13:12:29;;;;;;;13.38;2.90;;;;;;;16.65;33.34;100790.28;6296984;28;20055;-73
2021/10/10 13:15:30;;;;;;;9.93;2.88;;;;;;;16.51;32.31;100784.28;6297141;28;20044;-73
2021/10/10 13:18:31;;;;;;;6.82;3.15;;;;;;;16.67;34.54;100785.75;6296901;28;20178;-73
2021/10/10 13:21:31;;;;;;;12.00;2.90;;;;;;;16.67;34.35;100788.38;6279177;28;20041;-77
2021/10/10 13:24:32;;;;;;;4.82;2.80;;;;;;;16.29;32.53;100787.66;6296944;28;20093;-77
2021/10/10 13:27:33;;;;;;;10.02;3.08;;;;;;;16.07;33.91;100787.53;6308466;28;20047;-76
2021/10/10 13:30:34;;;;;;;8.80;3.60;;;;;;;16.06;33.91;100786.69;6321945;28;20531;-77
2021/10/10 13:33:36;;;;;;;4.70;2.65;;;;;;;16.17;34.49;100769.28;6320793;28;20054;-75
2021/10/10 13:36:37;;;;;;;12.63;3.45;;;;;;;16.26;35.43;100771.22;6321991;28;20040;-76
2021/10/10 13:39:39;;;;;;;8.97;3.17;;;;;;;16.33;33.47;100767.19;6320561;28;20396;-77
2021/10/10 13:42:40;;;;;;;8.23;2.60;;;;;;;16.31;34.55;100766.47;6321918;28;20124;-78
2021/10/10 13:45:41;;;;;;;7.85;3.03;;;;;;;16.26;35.50;100761.53;6322083;28;20039;-78
2021/10/10 13:48:41;;;;;;;7.47;3.20;;;;;;;16.11;34.37;100754.75;6330192;28;20050;-75
2021/10/10 13:51:42;;;;;;;10.98;2.92;;;;;;;16.10;34.66;100753.94;6311842;28;20510;-75
2021/10/10 13:54:45;;;;;;;8.93;2.78;;;;;;;16.06;34.68;100751.59;6328890;28;20177;-74
2021/10/10 13:57:46;;;;;;;9.32;3.60;;;;;;;16.09;36.52;100748.78;6331461;28;20101;-76
2021/10/10 14:00:49;;;;;;;8.75;3.55;;;;;;;16.08;35.67;100755.84;6305413;28;20055;-71
2021/10/10 14:03:50;;;;;;;10.57;3.80;;;;;;;16.06;34.87;100767.41;6342515;27;20096;-73
2021/10/10 14:06:51;;;;;;;8.68;2.90;;;;;;;15.96;35.85;100758.50;6333539;28;20169;-71
2021/10/10 14:09:52;;;;;;;13.93;3.13;;;;;;;15.92;36.55;100771.06;6339615;28;20047;-72
2021/10/10 14:12:52;;;;;;;7.32;2.70;;;;;;;15.81;35.00;100778.88;6342548;28;20040;-72